Time;durP1;ratioP1;P1;durP2;ratioP2;P2;SDS_P1;SDS_P2;PMS_P1;PMS_P2;Temp;Humidity;BMP_temperature;BMP_pressure;BME280_temperature;BME280_humidity;BME280_pressure;Samples;Min_cycle;Max_cycle;Signal;HPM_P1;HPM_P2
2024/02/01 00:00:00;;;;;;;4.63;2.33;;;8.50;90.00;;;;;;5000321;28;20022;-67
2024/02/01 00:02:25;;;;;;;3.92;2.60;;;8.50;90.10;;;;;;5000572;28;20366;-67
2024/02/01 00:04:51;;;;;;;3.47;2.42;;;8.60;90.20;;;;;;4994780;28;20069;-68
2024/02/01 00:07:16;;;;;;;5.05;3.03;;;8.60;90.20;;;;;;4997843;28;20034;-66
2024/02/01 00:09:42;;;;;;;5.05;2.95;;;8.60;90.30;;;;;;4992546;28;20039;-66
2024/02/01 00:12:07;;;;;;;4.03;2.90;;;8.60;90.30;;;;;;4998749;28;20037;-68
2024/02/01 00:14:33;;;;;;;4.47;3.13;;;8.60;90.40;;;;;;4994165;28;20038;-67
2024/02/01 00:16:59;;;;;;;5.90;3.45;;;8.60;90.60;;;;;;4998914;28;20046;-67
2024/02/01 00:19:24;;;;;;;4.22;2.70;;;8.70;90.70;;;;;;4990523;28;20499;-67
2024/02/01 00:21:50;;;;;;;2.88;2.33;;;8.70;90.70;;;;;;4998008;28;20030;-67
2024/02/01 00:24:17;;;;;;;4.32;2.90;;;8.70;90.60;;;;;;5000821;28;20037;-67
2024/02/01 00:26:42;;;;;;;4.13;2.50;;;8.80;90.70;;;;;;4998915;28;20682;-67
2024/02/01 00:29:08;;;;;;;5.68;3.13;;;8.80;90.80;;;;;;4992929;28;20117;-67
2024/02/01 00:31:33;;;;;;;3.53;2.50;;;8.80;90.90;;;;;;4995972;28;20827;-66
2024/02/01 00:34:00;;;;;;;3.53;2.67;;;8.80;90.90;;;;;;4993889;28;20026;-67
2024/02/01 00:36:26;;;;;;;4.18;2.60;;;8.90;91.00;;;;;;4995298;28;20388;-67
2024/02/01 00:38:51;;;;;;;4.50;2.72;;;8.90;91.10;;;;;;4996278;28;20101;-67
2024/02/01 00:41:17;;;;;;;4.97;2.70;;;8.90;91.20;;;;;;4999342;28;20053;-67
2024/02/01 00:43:44;;;;;;;3.97;2.70;;;9.00;91.10;;;;;;4997190;28;20036;-66
2024/02/01 00:46:10;;;;;;;3.55;2.38;;;9.00;91.10;;;;;;4995409;28;20097;-66
2024/02/01 00:48:35;;;;;;;2.88;2.47;;;9.00;91.10;;;;;;4995377;28;20022;-66
2024/02/01 00:51:01;;;;;;;5.60;2.97;;;9.10;91.30;;;;;;4996602;28;20030;-66
2024/02/01 00:53:27;;;;;;;3.17;2.75;;;9.10;91.30;;;;;;5002444;28;20101;-66
2024/02/01 00:55:53;;;;;;;4.22;2.45;;;9.10;91.40;;;;;;4994934;28;20495;-66
2024/02/01 00:58:19;;;;;;;4.05;2.50;;;9.10;91.40;;;;;;4992060;28;20027;-66
2024/02/01 01:00:45;;;;;;;4.38;3.00;;;9.20;91.50;;;;;;4990198;28;20109;-66
2024/02/01 01:03:11;;;;;;;4.20;3.10;;;9.20;91.60;;;;;;4995053;28;20030;-66
2024/02/01 01:05:37;;;;;;;3.05;2.40;;;9.20;91.60;;;;;;4991272;28;20762;-65
2024/02/01 01:08:02;;;;;;;2.72;2.22;;;9.20;91.70;;;;;;4995953;28;20118;-66
2024/02/01 01:10:28;;;;;;;4.38;2.72;;;9.20;91.60;;;;;;4991672;28;20429;-66
2024/02/01 01:12:54;;;;;;;2.78;2.15;;;9.30;91.70;;;;;;4988060;28;20053;-66
2024/02/01 01:15:19;;;;;;;3.90;2.67;;;9.30;91.70;;;;;;5000221;28;20026;-66
2024/02/01 01:17:45;;;;;;;3.72;2.88;;;9.30;91.70;;;;;;4996225;28;20018;-66
2024/02/01 01:20:11;;;;;;;5.28;3.10;;;9.40;91.80;;;;;;4997418;28;20041;-67
2024/02/01 01:22:36;;;;;;;4.40;3.05;;;9.40;91.70;;;;;;4992781;28;20054;-66
2024/02/01 01:25:02;;;;;;;2.97;2.50;;;9.40;91.90;;;;;;4989696;28;20026;-66
2024/02/01 01:27:28;;;;;;;3.13;2.38;;;9.40;91.90;;;;;;4991191;28;20023;-66
2024/02/01 01:29:53;;;;;;;4.90;2.60;;;9.40;91.90;;;;;;4995837;28;20025;-67
2024/02/01 01:32:19;;;;;;;4.32;2.83;;;9.40;92.00;;;;;;4989885;28;20381;-67
2024/02/01 01:34:44;;;;;;;3.65;2.60;;;9.40;92.00;;;;;;5000666;28;20435;-67
2024/02/01 01:37:10;;;;;;;2.22;1.90;;;9.50;92.10;;;;;;4989907;28;20026;-67
2024/02/01 01:39:35;;;;;;;3.53;2.42;;;9.50;92.10;;;;;;4994764;28;20105;-68
2024/02/01 01:42:01;;;;;;;2.95;2.05;;;9.50;92.20;;;;;;4990718;28;20481;-67
2024/02/01 01:44:27;;;;;;;2.72;1.92;;;9.50;92.20;;;;;;4989532;28;20041;-68
2024/02/01 01:46:53;;;;;;;4.88;3.30;;;9.50;92.50;;;;;;4994265;28;20428;-67
2024/02/01 01:49:19;;;;;;;3.85;2.90;;;9.50;92.40;;;;;;4995344;28;20025;-68
2024/02/01 01:51:47;;;;;;;5.18;2.92;;;9.50;92.60;;;;;;4988882;28;20153;-68
2024/02/01 01:54:14;;;;;;;2.72;2.20;;;9.60;92.60;;;;;;4988216;28;20022;-68
2024/02/01 01:56:40;;;;;;;3.03;2.17;;;9.60;92.50;;;;;;4988044;28;20022;-68
2024/02/01 01:59:06;;;;;;;3.63;2.15;;;9.60;92.60;;;;;;4989556;28;20022;-67
2024/02/01 02:01:35;;;;;;;2.63;2.10;;;9.60;92.70;;;;;;4984897;28;20026;-68
2024/02/01 02:04:02;;;;;;;2.35;1.77;;;9.60;92.80;;;;;;4994366;28;20037;-69
2024/02/01 02:06:29;;;;;;;2.38;2.13;;;9.70;92.80;;;;;;4990754;28;20117;-69
2024/02/01 02:08:54;;;;;;;2.90;2.17;;;9.70;92.80;;;;;;4982440;28;20038;-66
2024/02/01 02:11:23;;;;;;;3.00;1.80;;;9.70;92.70;;;;;;4986823;28;20026;-67
2024/02/01 02:13:49;;;;;;;1.95;1.70;;;9.80;92.70;;;;;;4982937;28;21562;-68
2024/02/01 02:16:18;;;;;;;1.90;1.50;;;9.80;92.60;;;;;;4992574;28;20022;-68
2024/02/01 02:18:44;;;;;;;1.95;1.77;;;9.80;92.70;;;;;;4996642;28;20042;-69
2024/02/01 02:21:11;;;;;;;1.73;1.60;;;9.90;92.70;;;;;;4994169;28;20101;-67
2024/02/01 02:23:38;;;;;;;2.08;1.42;;;9.90;92.70;;;;;;4997470;28;20128;-68
2024/02/01 02:26:07;;;;;;;1.83;1.48;;;9.90;92.80;;;;;;4989070;28;20031;-68
2024/02/01 02:28:35;;;;;;;2.00;1.80;;;9.90;92.80;;;;;;4987752;28;20747;-68
2024/02/01 02:31:02;;;;;;;2.67;1.92;;;9.90;92.80;;;;;;4989388;28;20453;-68
2024/02/01 02:33:27;;;;;;;1.95;1.65;;;9.90;92.90;;;;;;4987931;28;20034;-66
2024/02/01 02:35:53;;;;;;;3.15;1.40;;;9.90;92.90;;;;;;4996525;28;20471;-67
2024/02/01 02:38:19;;;;;;;1.58;1.40;;;9.90;93.00;;;;;;4989107;28;20030;-67
2024/02/01 02:40:45;;;;;;;2.00;1.55;;;10.00;93.00;;;;;;4986791;28;20517;-67
2024/02/01 02:43:10;;;;;;;3.30;2.08;;;10.00;93.00;;;;;;4995556;28;20162;-66
2024/02/01 02:45:36;;;;;;;3.10;1.80;;;10.00;93.00;;;;;;4988646;28;20385;-66
2024/02/01 02:48:05;;;;;;;2.50;1.90;;;10.00;93.00;;;;;;4990994;28;20041;-67
2024/02/01 02:50:31;;;;;;;3.33;2.13;;;10.00;93.00;;;;;;4992080;28;20022;-66
2024/02/01 02:52:56;;;;;;;2.38;1.70;;;10.00;93.10;;;;;;4993859;28;20022;-66
2024/02/01 02:55:22;;;;;;;4.07;2.17;;;10.00;93.10;;;;;;4991591;28;20026;-66
2024/02/01 02:57:47;;;;;;;2.90;2.10;;;10.10;93.10;;;;;;4990164;28;20023;-66
2024/02/01 03:00:18;;;;;;;3.50;2.30;;;10.10;93.10;;;;;;4992999;28;20499;-66
2024/02/01 03:02:50;;;;;;;4.03;2.13;;;10.20;93.00;;;;;;4992857;28;20456;-66
2024/02/01 03:05:16;;;;;;;5.05;2.20;;;10.20;93.00;;;;;;4991980;28;20072;-66
2024/02/01 03:07:43;;;;;;;2.63;1.73;;;10.20;93.10;;;;;;4991496;28;20031;-66
2024/02/01 03:10:09;;;;;;;3.53;1.65;;;10.20;93.10;;;;;;4991809;28;20033;-66
2024/02/01 03:12:35;;;;;;;5.32;2.55;;;10.20;93.20;;;;;;4997664;28;20023;-65
2024/02/01 03:15:01;;;;;;;3.53;2.20;;;10.20;93.30;;;;;;4991508;28;20033;-67
2024/02/01 03:17:26;;;;;;;5.00;2.13;;;10.20;93.30;;;;;;4998194;28;20656;-66
2024/02/01 03:19:52;;;;;;;4.18;1.95;;;10.20;93.30;;;;;;4992317;28;20053;-66
2024/02/01 03:22:24;;;;;;;3.88;2.00;;;10.20;93.30;;;;;;4993991;28;20022;-66
2024/02/01 03:24:58;;;;;;;3.65;2.40;;;10.20;93.30;;;;;;4992684;28;20038;-68
2024/02/01 03:27:25;;;;;;;6.07;2.53;;;10.20;93.30;;;;;;4998872;28;20136;-68
2024/02/01 03:29:53;;;;;;;8.10;2.30;;;10.20;93.30;;;;;;4994186;28;20030;-67
2024/02/01 03:32:19;;;;;;;7.60;2.13;;;10.10;93.40;;;;;;4999759;28;20148;-67
2024/02/01 03:34:45;;;;;;;8.65;2.17;;;10.10;93.50;;;;;;4996994;28;20053;-68
2024/02/01 03:37:16;;;;;;;8.38;2.00;;;10.00;93.50;;;;;;4996690;28;20053;-67
2024/02/01 03:39:42;;;;;;;;;;;9.90;93.60;;;;;;4993260;28;20081;-67
2024/02/01 03:42:07;;;;;;;3.75;1.67;;;9.90;93.70;;;;;;4996109;28;20003;-69
2024/02/01 03:44:37;;;;;;;4.22;1.70;;;9.80;93.70;;;;;;4992937;28;20026;-68
2024/02/01 03:47:09;;;;;;;4.82;1.70;;;9.80;93.80;;;;;;4992282;28;20046;-68
2024/02/01 03:49:37;;;;;;;5.10;1.40;;;9.70;93.80;;;;;;5003074;28;20037;-67
2024/02/01 03:52:03;;;;;;;5.78;1.52;;;9.70;93.80;;;;;;4991813;28;20029;-67
2024/02/01 03:54:31;;;;;;;5.05;1.73;;;9.70;93.90;;;;;;4990458;28;20026;-67
2024/02/01 03:56:56;;;;;;;5.60;1.58;;;9.60;93.80;;;;;;4992885;28;20064;-67
2024/02/01 03:59:22;;;;;;;4.55;1.38;;;9.60;93.90;;;;;;4995470;28;20483;-67
2024/02/01 04:01:47;;;;;;;4.22;1.63;;;9.50;93.90;;;;;;5000959;28;20558;-68
2024/02/01 04:04:17;;;;;;;5.15;1.40;;;9.50;93.90;;;;;;4994720;28;20074;-68
2024/02/01 04:06:44;;;;;;;5.20;1.50;;;9.50;93.90;;;;;;4998344;28;20535;-68
2024/02/01 04:09:09;;;;;;;4.32;1.40;;;9.50;93.90;;;;;;4993850;28;20027;-67
2024/02/01 04:11:35;;;;;;;4.55;1.25;;;9.40;93.90;;;;;;4994271;28;20026;-68
2024/02/01 04:14:01;;;;;;;6.57;1.60;;;9.40;93.90;;;;;;4990315;28;20139;-67
2024/02/01 04:16:27;;;;;;;6.93;1.67;;;9.40;93.80;;;;;;4990432;28;20544;-67
2024/02/01 04:18:55;;;;;;;8.43;1.60;;;9.30;93.80;;;;;;4995050;28;20030;-67
2024/02/01 04:21:21;;;;;;;5.80;1.58;;;9.20;93.80;;;;;;4989980;28;20065;-67
2024/02/01 04:23:46;;;;;;;4.70;1.23;;;9.10;93.90;;;;;;4989945;28;20035;-67
2024/02/01 04:26:15;;;;;;;5.43;1.30;;;9.10;93.90;;;;;;4990054;28;20033;-66
2024/02/01 04:28:42;;;;;;;3.47;1.20;;;9.10;93.90;;;;;;4988866;28;20034;-66
2024/02/01 04:31:08;;;;;;;2.38;1.00;;;9.10;93.90;;;;;;4990987;28;20050;-66
2024/02/01 04:33:33;;;;;;;2.80;1.10;;;9.00;93.90;;;;;;4990062;28;20481;-66
2024/02/01 04:35:59;;;;;;;6.00;1.30;;;9.00;94.10;;;;;;4989817;28;20025;-65
2024/02/01 04:38:27;;;;;;;7.57;1.60;;;8.90;93.80;;;;;;4994119;28;20023;-65
2024/02/01 04:40:52;;;;;;;5.25;1.23;;;8.80;93.70;;;;;;4990186;28;20400;-64
2024/02/01 04:43:19;;;;;;;9.65;1.52;;;8.70;93.80;;;;;;4993365;28;20031;-66
2024/02/01 04:45:48;;;;;;;7.25;1.40;;;8.60;93.80;;;;;;4989021;28;20026;-66
2024/02/01 04:48:14;;;;;;;5.65;1.42;;;8.60;93.80;;;;;;4988453;28;20501;-66
2024/02/01 04:50:40;;;;;;;5.60;1.30;;;8.50;93.80;;;;;;4989220;28;20076;-65
2024/02/01 04:53:06;;;;;;;4.82;1.20;;;8.40;93.80;;;;;;4990009;28;20524;-66
2024/02/01 04:55:32;;;;;;;3.85;1.27;;;8.30;93.80;;;;;;4989640;28;20611;-66
2024/02/01 04:57:58;;;;;;;6.55;1.50;;;8.20;93.90;;;;;;4989251;28;20157;-66
2024/02/01 05:00:24;;;;;;;4.82;1.10;;;8.20;93.90;;;;;;4996970;28;20033;-66
2024/02/01 05:02:49;;;;;;;3.55;1.20;;;8.10;93.90;;;;;;4989615;28;20022;-68
2024/02/01 05:05:16;;;;;;;3.05;1.10;;;8.00;93.90;;;;;;4987730;28;20026;-66
2024/02/01 05:07:42;;;;;;;5.22;1.05;;;8.00;94.00;;;;;;4991153;28;20385;-65
2024/02/01 05:10:09;;;;;;;4.45;1.27;;;8.00;94.00;;;;;;4989789;28;20030;-65
2024/02/01 05:12:37;;;;;;;2.95;0.82;;;7.90;93.90;;;;;;4986367;28;20030;-65
2024/02/01 05:15:07;;;;;;;4.32;1.05;;;7.90;93.90;;;;;;4988110;28;20077;-65
2024/02/01 05:17:34;;;;;;;4.45;1.00;;;7.90;93.90;;;;;;4988917;28;20041;-66
2024/02/01 05:19:59;;;;;;;5.50;0.82;;;7.80;93.90;;;;;;4989112;28;20030;-66
2024/02/01 05:22:28;;;;;;;2.30;0.90;;;7.80;93.90;;;;;;4989296;28;20030;-67
2024/02/01 05:24:54;;;;;;;2.20;0.80;;;7.80;93.90;;;;;;4986626;28;20117;-66
2024/02/01 05:27:20;;;;;;;2.40;0.80;;;7.70;93.90;;;;;;4989221;28;20105;-65
2024/02/01 05:29:49;;;;;;;2.53;0.98;;;7.70;93.80;;;;;;4989622;28;20057;-67
2024/02/01 05:32:16;;;;;;;2.35;0.93;;;7.70;93.90;;;;;;4989785;28;20034;-67
2024/02/01 05:34:41;;;;;;;1.17;0.65;;;7.70;93.90;;;;;;4987169;28;20026;-68
2024/02/01 05:37:08;;;;;;;1.73;0.70;;;7.60;93.90;;;;;;4988672;28;20519;-68
2024/02/01 05:39:34;;;;;;;1.83;0.73;;;7.60;93.80;;;;;;4985097;28;20392;-68
2024/02/01 05:42:01;;;;;;;3.05;0.90;;;7.60;93.80;;;;;;4988812;28;20097;-68
2024/02/01 05:44:28;;;;;;;1.95;0.70;;;7.60;93.80;;;;;;4988579;28;20125;-68
2024/02/01 05:46:56;;;;;;;2.65;0.90;;;7.50;93.70;;;;;;4987023;28;20388;-67
2024/02/01 05:49:23;;;;;;;1.10;0.80;;;7.50;93.70;;;;;;4987273;28;20057;-67
2024/02/01 05:51:51;;;;;;;2.95;0.90;;;7.40;93.70;;;;;;4990035;28;20504;-66
2024/02/01 05:54:21;;;;;;;3.42;0.80;;;7.40;93.70;;;;;;4989275;28;20042;-67
2024/02/01 05:56:47;;;;;;;3.03;0.77;;;7.40;93.70;;;;;;4988763;28;20027;-68
2024/02/01 05:59:15;;;;;;;2.47;0.80;;;7.40;93.70;;;;;;4986790;28;20092;-67
2024/02/01 06:01:41;;;;;;;2.72;0.98;;;7.40;93.70;;;;;;4986584;28;20030;-67
2024/02/01 06:04:08;;;;;;;2.58;0.90;;;7.30;93.80;;;;;;4987856;28;20030;-66
2024/02/01 06:06:36;;;;;;;2.70;0.80;;;7.30;93.70;;;;;;4986665;28;20117;-67
2024/02/01 06:09:02;;;;;;;4.30;1.00;;;7.30;93.70;;;;;;4990473;28;20030;-68
2024/02/01 06:11:27;;;;;;;3.85;0.90;;;7.30;93.70;;;;;;4990679;28;20026;-67
2024/02/01 06:13:53;;;;;;;2.83;0.90;;;7.20;93.60;;;;;;4988479;28;20496;-68
2024/02/01 06:16:19;;;;;;;1.83;0.80;;;7.20;93.60;;;;;;4987357;28;20022;-68
2024/02/01 06:18:44;;;;;;;3.30;1.20;;;7.10;93.60;;;;;;4986829;28;20364;-67
2024/02/01 06:21:15;;;;;;;3.60;0.90;;;7.10;93.70;;;;;;4987361;28;20026;-67
2024/02/01 06:23:41;;;;;;;1.75;0.85;;;7.10;93.80;;;;;;4991022;28;20041;-67
2024/02/01 06:26:07;;;;;;;4.03;1.00;;;7.00;93.70;;;;;;4991888;28;20027;-68
2024/02/01 06:28:33;;;;;;;5.10;1.00;;;7.00;93.70;;;;;;4992815;28;20112;-68
2024/02/01 06:30:59;;;;;;;2.55;0.90;;;7.00;93.70;;;;;;4990812;28;20073;-67
2024/02/01 06:33:28;;;;;;;3.70;0.98;;;7.00;93.60;;;;;;4989838;28;20030;-66
2024/02/01 06:35:55;;;;;;;2.72;0.80;;;7.00;93.60;;;;;;4991563;28;20018;-68
2024/02/01 06:38:35;;;;;;;2.22;0.80;;;6.90;93.60;;;;;;4992412;28;20072;-66
2024/02/01 06:41:17;;;;;;;4.60;0.90;;;6.90;93.60;;;;;;4990845;28;20026;-66
2024/02/01 06:46:49;;;;;;;2.15;0.80;;;6.80;93.60;;;;;;4993998;28;19933;-67
2024/02/01 06:49:18;;;;;;;2.38;0.90;;;6.70;93.90;;;;;;4992698;28;20029;-67
2024/02/01 06:51:44;;;;;;;4.03;0.90;;;6.70;93.80;;;;;;4993588;28;20108;-67
2024/02/01 06:54:28;;;;;;;2.90;1.23;;;6.70;93.80;;;;;;4993921;28;20629;-67
2024/02/01 06:57:02;;;;;;;2.42;0.90;;;6.70;93.80;;;;;;4989496;28;20127;-67
2024/02/01 06:59:33;;;;;;;1.05;0.75;;;6.70;93.70;;;;;;4992077;28;20035;-66
2024/02/01 07:02:24;;;;;;;1.63;0.65;;;6.60;93.60;;;;;;4989203;28;20031;-66
2024/02/01 07:04:51;;;;;;;2.80;1.08;;;6.60;93.60;;;;;;4989743;28;20050;-66
2024/02/01 07:07:18;;;;;;;2.05;0.90;;;6.60;93.60;;;;;;4987637;28;20027;-67
2024/02/01 07:09:57;;;;;;;1.48;1.10;;;6.60;93.70;;;;;;4988461;28;20022;-67
2024/02/01 07:12:42;;;;;;;0.98;0.88;;;6.50;93.70;;;;;;4991928;28;20024;-66
2024/02/01 07:15:30;;;;;;;2.05;0.95;;;6.50;93.70;;;;;;4991376;28;20018;-67
2024/02/01 07:18:30;;;;;;;1.88;0.82;;;6.60;93.70;;;;;;4990262;28;20038;-67
2024/02/01 07:20:50;;;;;;;1.63;0.90;;;6.60;93.60;;;;;;4986763;28;20037;-67
2024/02/01 07:26:02;;;;;;;3.83;1.13;;;6.50;93.50;;;;;;4989276;28;20045;-68
2024/02/01 07:58:38;;;;;;;2.38;0.90;;;6.60;93.10;;;;;;4990316;28;20092;-67
2024/02/01 08:01:14;;;;;;;2.05;1.02;;;6.60;93.00;;;;;;4983437;28;20041;-67
2024/02/01 08:04:01;;;;;;;2.97;0.85;;;6.70;93.00;;;;;;4985844;28;20027;-67
2024/02/01 08:09:12;;;;;;;2.53;0.90;;;6.70;93.00;;;;;;4989080;28;20100;-67
2024/02/01 08:11:41;;;;;;;2.78;1.00;;;6.70;92.90;;;;;;4989025;28;20033;-67
2024/02/01 08:14:11;;;;;;;2.35;1.08;;;6.70;92.90;;;;;;4989108;28;20023;-67
2024/02/01 08:16:39;;;;;;;3.67;0.90;;;6.70;92.80;;;;;;4989392;28;20018;-67
2024/02/01 08:19:05;;;;;;;1.73;0.93;;;6.70;92.80;;;;;;4991712;28;20025;-67
2024/02/01 08:21:36;;;;;;;1.20;0.77;;;6.80;92.80;;;;;;4991875;28;20125;-68
2024/02/01 08:24:06;;;;;;;4.80;1.17;;;6.70;92.70;;;;;;4987903;28;20053;-68
2024/02/01 08:26:37;;;;;;;2.95;1.20;;;6.70;92.80;;;;;;4988112;28;20286;-66
2024/02/01 08:29:07;;;;;;;1.92;0.90;;;6.80;92.70;;;;;;4986210;28;20033;-66
2024/02/01 08:31:38;;;;;;;3.10;0.98;;;6.80;92.70;;;;;;4984582;28;20034;-67
2024/02/01 08:34:07;;;;;;;3.13;1.00;;;6.80;92.70;;;;;;4988636;28;20014;-67
2024/02/01 08:36:41;;;;;;;5.07;1.10;;;6.80;92.60;;;;;;4989219;28;20393;-67
2024/02/01 08:39:08;;;;;;;3.08;1.00;;;6.90;92.60;;;;;;4989424;28;20042;-67
2024/02/01 08:41:35;;;;;;;2.33;1.02;;;6.90;92.50;;;;;;4985457;28;20018;-68
2024/02/01 08:44:02;;;;;;;3.45;1.10;;;6.90;92.50;;;;;;4985518;28;20034;-69
2024/02/01 08:46:28;;;;;;;2.45;1.45;;;6.90;92.40;;;;;;4987149;28;20026;-66
2024/02/01 08:48:54;;;;;;;2.40;0.93;;;7.00;92.40;;;;;;4994063;28;20042;-67
2024/02/01 08:51:22;;;;;;;2.38;1.10;;;7.00;92.40;;;;;;4993263;28;20140;-66
2024/02/01 08:53:47;;;;;;;3.47;1.05;;;7.00;92.30;;;;;;4990554;28;20063;-68
2024/02/01 08:56:13;;;;;;;4.75;1.30;;;7.10;92.30;;;;;;4996464;28;20641;-68
2024/02/01 08:58:38;;;;;;;6.00;1.30;;;7.10;92.30;;;;;;4996460;28;20030;-67
2024/02/01 09:01:05;;;;;;;2.58;1.00;;;7.00;92.20;;;;;;4991323;28;20041;-67
2024/02/01 09:03:32;;;;;;;3.15;1.25;;;7.10;92.30;;;;;;4988443;28;20026;-67
2024/02/01 09:06:08;;;;;;;3.53;1.45;;;7.10;92.20;;;;;;4991099;28;20121;-68
2024/02/01 09:08:39;;;;;;;2.67;1.10;;;7.10;92.10;;;;;;4988872;28;20690;-68
2024/02/01 09:11:11;;;;;;;4.20;1.13;;;7.20;92.10;;;;;;4989574;28;20018;-68
2024/02/01 09:13:43;;;;;;;5.55;1.17;;;7.20;92.00;;;;;;4984778;28;20062;-67
2024/02/01 09:16:09;;;;;;;2.60;1.10;;;7.20;92.00;;;;;;4988113;28;20029;-67
2024/02/01 09:18:35;;;;;;;2.97;1.02;;;7.20;92.00;;;;;;4988587;28;20037;-67
2024/02/01 09:21:01;;;;;;;3.55;1.17;;;7.20;92.00;;;;;;4989074;28;20030;-67
2024/02/01 09:23:26;;;;;;;3.25;1.20;;;7.30;92.00;;;;;;4995732;28;20473;-67
2024/02/01 09:25:52;;;;;;;3.75;1.20;;;7.30;92.00;;;;;;4989819;28;20100;-68
2024/02/01 09:28:17;;;;;;;3.28;1.10;;;7.30;91.90;;;;;;4992032;28;20034;-67
2024/02/01 09:30:46;;;;;;;2.33;1.33;;;7.40;91.90;;;;;;4989976;28;20500;-68
2024/02/01 09:33:12;;;;;;;2.83;1.13;;;7.40;91.80;;;;;;4987712;28;20036;-68
2024/02/01 09:35:37;;;;;;;4.75;1.10;;;7.40;91.80;;;;;;4989805;28;20018;-68
2024/02/01 09:38:03;;;;;;;2.67;0.98;;;7.50;91.80;;;;;;4997068;28;20100;-68
2024/02/01 09:40:30;;;;;;;3.90;1.27;;;7.50;91.80;;;;;;4991150;28;20053;-69
2024/02/01 09:42:56;;;;;;;4.15;1.00;;;7.60;91.70;;;;;;4987701;28;20033;-68
2024/02/01 09:45:28;;;;;;;3.33;1.42;;;7.60;91.70;;;;;;4986640;28;20022;-68
2024/02/01 09:47:55;;;;;;;4.70;1.10;;;7.70;91.60;;;;;;4987385;28;20057;-68
2024/02/01 09:50:20;;;;;;;3.53;1.02;;;7.70;91.60;;;;;;4986861;28;20022;-68
2024/02/01 09:52:47;;;;;;;3.08;0.95;;;7.80;91.60;;;;;;4990493;28;20030;-67
2024/02/01 09:55:17;;;;;;;3.55;1.30;;;7.80;91.50;;;;;;4987558;28;20033;-67
2024/02/01 09:57:48;;;;;;;3.85;1.17;;;7.80;91.50;;;;;;4990521;28;20033;-67
2024/02/01 10:00:18;;;;;;;5.15;1.10;;;7.90;91.50;;;;;;4987489;28;20030;-67
2024/02/01 10:02:51;;;;;;;4.38;1.13;;;7.90;91.40;;;;;;4995008;28;20041;-68
2024/02/01 10:05:19;;;;;;;4.55;1.48;;;7.90;91.40;;;;;;4992745;28;20114;-68
2024/02/01 10:07:44;;;;;;;6.38;1.50;;;8.00;91.40;;;;;;4996580;28;20036;-68
2024/02/01 10:10:13;;;;;;;3.33;1.30;;;8.00;91.30;;;;;;4994948;28;20036;-68
2024/02/01 10:12:41;;;;;;;8.65;1.80;;;8.00;91.30;;;;;;4992557;28;20018;-69
2024/02/01 10:15:11;;;;;;;4.40;1.30;;;8.00;91.30;;;;;;4991634;28;20027;-69
2024/02/01 10:17:46;;;;;;;5.43;1.17;;;8.10;91.30;;;;;;4993013;28;20023;-68
2024/02/01 10:20:33;;;;;;;4.35;1.42;;;8.10;91.20;;;;;;4990769;28;20034;-69
2024/02/01 10:23:06;;;;;;;7.78;1.58;;;8.20;91.20;;;;;;4990830;28;20412;-68
2024/02/01 10:25:34;;;;;;;6.13;1.60;;;8.20;91.10;;;;;;4990638;28;20460;-68
2024/02/01 10:28:04;;;;;;;8.15;1.60;;;8.30;91.10;;;;;;4989583;28;20023;-69
2024/02/01 10:30:31;;;;;;;5.85;1.35;;;8.30;91.10;;;;;;4991558;28;20026;-68
2024/02/01 10:33:03;;;;;;;7.72;1.30;;;8.40;91.00;;;;;;4989306;28;20077;-68
2024/02/01 10:35:31;;;;;;;;;;;8.40;91.00;;;;;;4990673;28;20501;-67
2024/02/01 10:37:59;;;;;;;5.80;1.40;;;8.50;90.90;;;;;;4990432;28;19924;-67
2024/02/01 10:40:30;;;;;;;6.88;1.40;;;8.60;90.80;;;;;;4990749;28;20475;-68
2024/02/01 10:42:59;;;;;;;6.15;1.73;;;8.60;90.80;;;;;;4990561;28;20531;-68
2024/02/01 10:45:30;;;;;;;5.40;1.50;;;8.60;90.70;;;;;;4989128;28;20378;-66
2024/02/01 10:47:59;;;;;;;5.25;1.73;;;8.70;90.70;;;;;;4991251;28;20026;-67
2024/02/01 10:50:32;;;;;;;7.20;1.38;;;8.70;90.60;;;;;;4991044;28;20060;-68
2024/02/01 10:53:01;;;;;;;2.80;1.20;;;8.80;90.60;;;;;;4989130;28;20041;-67
2024/02/01 10:55:27;;;;;;;8.02;1.70;;;8.90;90.60;;;;;;4990784;28;20049;-67
2024/02/01 10:57:53;;;;;;;7.78;2.20;;;9.00;90.50;;;;;;4988454;28;20015;-67
2024/02/01 11:00:20;;;;;;;9.02;2.00;;;9.00;90.40;;;;;;4990126;28;20026;-67
2024/02/01 11:02:56;;;;;;;7.78;1.50;;;9.00;90.30;;;;;;4993625;28;20018;-68
2024/02/01 11:05:31;;;;;;;13.07;2.08;;;9.00;90.30;;;;;;4990863;28;20033;-68
2024/02/01 11:07:57;;;;;;;14.23;1.90;;;9.00;90.20;;;;;;4988648;28;20047;-68
2024/02/01 11:10:24;;;;;;;11.02;1.95;;;9.10;90.10;;;;;;4989243;28;20057;-69
2024/02/01 11:12:54;;;;;;;7.82;1.75;;;9.10;90.10;;;;;;4991766;28;20490;-68
2024/02/01 11:15:23;;;;;;;6.00;1.45;;;9.20;90.00;;;;;;4991007;28;20023;-68
2024/02/01 11:17:48;;;;;;;9.13;2.00;;;9.30;89.90;;;;;;4992866;28;20165;-67
2024/02/01 11:20:21;;;;;;;9.48;1.90;;;9.30;89.60;;;;;;4991359;28;20105;-67
2024/02/01 11:22:55;;;;;;;6.47;1.42;;;9.40;89.60;;;;;;4990021;28;20049;-68
2024/02/01 11:25:26;;;;;;;7.47;1.50;;;9.50;89.50;;;;;;4989599;28;20687;-68
2024/02/01 11:27:52;;;;;;;5.32;1.90;;;9.60;89.20;;;;;;4995484;28;20034;-67
2024/02/01 11:30:26;;;;;;;4.25;1.42;;;9.70;88.90;;;;;;5002676;28;20545;-69
2024/02/01 11:32:52;;;;;;;7.43;1.75;;;9.80;88.70;;;;;;5019938;28;20034;-68
2024/02/01 11:35:17;;;;;;;3.30;1.27;;;9.80;88.60;;;;;;4983091;28;20393;-67
2024/02/01 11:37:43;;;;;;;6.30;1.40;;;9.80;88.60;;;;;;4986380;28;20022;-68
2024/02/01 11:40:15;;;;;;;4.47;1.13;;;9.90;88.60;;;;;;4993727;28;20135;-68
2024/02/01 11:42:45;;;;;;;11.98;2.50;;;10.00;88.60;;;;;;4993818;28;20088;-68
2024/02/01 11:45:14;;;;;;;9.82;2.10;;;9.90;87.90;;;;;;4993356;28;20084;-68
2024/02/01 11:47:42;;;;;;;9.70;1.80;;;9.90;87.70;;;;;;4994846;28;20535;-69
2024/02/01 11:50:08;;;;;;;5.85;2.30;;;10.00;87.70;;;;;;4988849;28;20027;-68
2024/02/01 11:52:50;;;;;;;9.15;2.58;;;10.00;87.60;;;;;;4988970;28;20497;-68
2024/02/01 11:55:16;;;;;;;6.13;1.70;;;10.10;87.50;;;;;;4993483;28;20053;-68
2024/02/01 11:57:57;;;;;;;5.93;1.60;;;10.10;87.30;;;;;;4989050;28;20119;-67
2024/02/01 12:00:23;;;;;;;9.35;1.67;;;10.10;87.20;;;;;;4994896;28;20069;-67
2024/02/01 12:02:49;;;;;;;5.32;1.50;;;10.20;87.20;;;;;;4986612;28;20030;-67
2024/02/01 12:05:21;;;;;;;12.02;1.60;;;10.20;87.20;;;;;;4989498;28;20034;-68
2024/02/01 12:07:47;;;;;;;8.23;1.77;;;10.30;87.10;;;;;;4987461;28;20106;-68
2024/02/01 12:10:16;;;;;;;8.43;1.60;;;10.30;87.10;;;;;;4990818;28;20134;-68
2024/02/01 12:12:44;;;;;;;4.95;1.45;;;10.90;87.20;;;;;;4996085;28;20070;-67
2024/02/01 12:15:11;;;;;;;8.80;1.73;;;11.70;85.30;;;;;;4991362;28;20014;-67
2024/02/01 12:17:45;;;;;;;7.75;1.60;;;12.50;82.00;;;;;;4998986;28;20478;-69
2024/02/01 12:20:28;;;;;;;11.07;1.95;;;13.20;79.30;;;;;;4994846;28;20029;-67
2024/02/01 12:22:57;;;;;;;8.98;2.08;;;13.30;78.00;;;;;;4994029;28;20107;-67
2024/02/01 12:25:23;;;;;;;5.53;1.45;;;12.50;79.00;;;;;;4991645;28;20030;-67
2024/02/01 12:27:50;;;;;;;5.68;1.30;;;12.40;79.30;;;;;;4998384;28;20451;-68
2024/02/01 12:30:16;;;;;;;6.05;1.67;;;11.90;80.50;;;;;;4991958;28;20631;-68
2024/02/01 12:32:44;;;;;;;5.97;1.50;;;11.50;81.50;;;;;;4995609;28;20153;-68
2024/02/01 12:35:12;;;;;;;4.25;1.20;;;11.20;82.60;;;;;;4994502;28;20080;-68
2024/02/01 12:37:40;;;;;;;7.40;1.40;;;10.90;83.10;;;;;;5002289;28;20113;-68
2024/02/01 12:40:13;;;;;;;7.93;1.70;;;10.70;83.70;;;;;;4993013;28;20030;-68
2024/02/01 12:42:39;;;;;;;5.93;1.65;;;10.60;84.10;;;;;;5002981;28;20030;-68
2024/02/01 12:45:17;;;;;;;8.75;1.80;;;10.50;84.90;;;;;;4992926;28;20026;-68
2024/02/01 12:47:47;;;;;;;9.45;2.15;;;10.50;84.60;;;;;;4999142;28;20037;-68
2024/02/01 12:50:15;;;;;;;5.00;1.33;;;10.40;84.60;;;;;;4990779;28;20033;-68
2024/02/01 12:52:41;;;;;;;7.80;1.88;;;10.40;84.70;;;;;;5001506;28;20026;-68
2024/02/01 12:55:07;;;;;;;5.85;1.50;;;10.30;84.10;;;;;;4995504;28;20688;-69
2024/02/01 12:57:34;;;;;;;7.82;1.85;;;10.30;84.50;;;;;;4993926;28;20022;-68
2024/02/01 13:00:00;;;;;;;4.75;1.58;;;10.30;84.70;;;;;;4989316;28;20033;-68
2024/02/01 13:02:25;;;;;;;6.10;1.77;;;10.60;84.40;;;;;;4989910;28;20034;-68
2024/02/01 13:04:52;;;;;;;7.13;1.55;;;10.60;83.80;;;;;;4992975;28;20024;-69
2024/02/01 13:07:18;;;;;;;11.88;2.17;;;10.60;83.70;;;;;;4987938;28;20037;-68
2024/02/01 13:09:44;;;;;;;5.30;1.45;;;10.50;83.60;;;;;;5003919;28;20034;-68
2024/02/01 13:12:18;;;;;;;9.70;2.42;;;10.40;83.60;;;;;;4994103;28;20026;-68
2024/02/01 13:14:57;;;;;;;6.80;1.55;;;10.30;83.80;;;;;;4990045;28;20023;-67
2024/02/01 13:17:30;;;;;;;7.53;1.85;;;10.10;83.80;;;;;;4987626;28;20477;-68
2024/02/01 13:19:57;;;;;;;7.45;1.80;;;10.00;83.80;;;;;;4984465;28;20087;-67
2024/02/01 13:22:26;;;;;;;8.32;1.55;;;9.90;84.10;;;;;;4968547;28;20106;-67
2024/02/01 13:24:52;;;;;;;5.18;1.50;;;10.00;84.20;;;;;;4973494;28;20152;-68
2024/02/01 13:27:18;;;;;;;6.57;1.80;;;10.00;84.10;;;;;;4989225;28;20014;-68
2024/02/01 13:29:44;;;;;;;5.43;1.58;;;10.00;83.70;;;;;;4985435;28;20033;-68
2024/02/01 13:32:12;;;;;;;6.43;1.48;;;10.00;84.00;;;;;;4989946;28;20018;-68
2024/02/01 13:34:39;;;;;;;5.43;1.30;;;10.20;84.10;;;;;;4993882;28;20496;-68
2024/02/01 13:37:12;;;;;;;9.27;1.60;;;10.30;83.60;;;;;;4987871;28;20118;-68